Time;durP1;ratioP1;P1;durP2;ratioP2;P2;SDS_P1;SDS_P2;PMS_P1;PMS_P2;Temp;Humidity;BMP_temperature;BMP_pressure;BME280_temperature;BME280_humidity;BME280_pressure;Samples;Min_cycle;Max_cycle;Signal;HPM_P1;HPM_P2
2023/12/05 00:01:18;;;;;;;;;;;0.80;99.90;;;;;;4957226;28;19925;-69
2023/12/05 00:03:44;;;;;;;;;;;0.80;99.90;;;;;;4984717;28;19936;-69
2023/12/05 00:06:10;;;;;;;;;;;0.90;99.90;;;;;;4958861;28;19932;-70
2023/12/05 00:08:36;;;;;;;;;;;0.90;99.90;;;;;;4997192;28;19925;-69
2023/12/05 00:11:04;;;;;;;;;;;0.90;99.90;;;;;;4956858;28;19945;-68
2023/12/05 00:13:30;;;;;;;;;;;0.80;99.90;;;;;;4985114;28;19925;-68
2023/12/05 00:15:55;;;;;;;;;;;0.90;99.90;;;;;;4955204;28;19940;-69
2023/12/05 00:18:21;;;;;;;;;;;0.80;99.90;;;;;;4996585;28;19935;-69
2023/12/05 00:20:47;;;;;;;;;;;0.80;99.90;;;;;;4955202;28;20430;-69
2023/12/05 00:23:13;;;;;;;;;;;0.90;99.90;;;;;;5000491;28;19936;-69
2023/12/05 00:25:40;;;;;;;;;;;0.80;99.90;;;;;;4979919;28;20410;-68
2023/12/05 00:28:05;;;;;;;;;;;0.80;99.90;;;;;;4984749;28;19925;-69
2023/12/05 00:30:31;;;;;;;;;;;0.80;99.90;;;;;;4982849;28;21034;-69
2023/12/05 00:32:57;;;;;;;;;;;0.80;99.90;;;;;;4975298;28;19929;-69
2023/12/05 00:35:24;;;;;;;;;;;0.80;99.90;;;;;;4983939;28;20843;-68
2023/12/05 00:37:50;;;;;;;;;;;0.80;99.90;;;;;;4970094;28;19932;-68
2023/12/05 00:40:16;;;;;;;;;;;0.80;99.90;;;;;;4983652;28;21059;-69
2023/12/05 00:42:42;;;;;;;;;;;0.80;99.90;;;;;;4968769;28;20944;-69
2023/12/05 00:45:10;;;;;;;;;;;0.80;99.90;;;;;;4976128;28;19929;-70
2023/12/05 00:47:36;;;;;;;;;;;0.80;99.90;;;;;;4966736;28;19924;-69
2023/12/05 00:50:02;;;;;;;;;;;0.80;99.90;;;;;;4983799;28;19932;-69
2023/12/05 00:52:28;;;;;;;;;;;0.80;99.90;;;;;;4971277;28;20470;-69
2023/12/05 00:54:54;;;;;;;;;;;0.80;99.90;;;;;;4982985;28;20432;-69
2023/12/05 00:57:19;;;;;;;;;;;0.80;99.90;;;;;;4965344;28;19929;-69
2023/12/05 00:59:45;;;;;;;;;;;0.80;99.90;;;;;;4980904;28;19925;-69
2023/12/05 01:02:11;;;;;;;;;;;0.80;99.90;;;;;;4939063;28;19924;-71
2023/12/05 01:04:37;;;;;;;;;;;0.70;99.90;;;;;;4984802;28;19933;-70
2023/12/05 01:07:04;;;;;;;;;;;0.80;99.90;;;;;;4950077;28;19925;-69
2023/12/05 01:09:30;;;;;;;;;;;0.80;99.90;;;;;;4985864;28;19925;-69
2023/12/05 01:11:56;;;;;;;;;;;0.80;99.90;;;;;;4952474;28;19931;-69
2023/12/05 01:14:22;;;;;;;;;;;0.80;99.90;;;;;;4981849;28;20574;-69
2023/12/05 01:16:48;;;;;;;;;;;0.80;99.90;;;;;;4961284;28;19924;-69
2023/12/05 01:19:13;;;;;;;;;;;0.80;99.90;;;;;;4967978;28;20994;-69
2023/12/05 01:21:39;;;;;;;;;;;0.80;99.90;;;;;;4962053;28;19924;-69
2023/12/05 01:24:06;;;;;;;;;;;0.70;99.90;;;;;;4982075;28;19925;-69
2023/12/05 01:26:32;;;;;;;;;;;0.70;99.90;;;;;;4953183;28;20730;-68
2023/12/05 01:28:58;;;;;;;;;;;0.70;99.90;;;;;;4984279;28;19925;-69
2023/12/05 01:31:24;;;;;;;;;;;0.80;99.90;;;;;;4957863;28;19982;-69
2023/12/05 01:33:49;;;;;;;;;;;0.70;99.90;;;;;;4992888;28;19925;-69
2023/12/05 01:36:15;;;;;;;;;;;0.70;99.90;;;;;;4955110;28;20402;-69
2023/12/05 01:38:41;;;;;;;;;;;0.70;99.90;;;;;;4979476;28;19936;-68
2023/12/05 01:41:07;;;;;;;;;;;0.70;99.90;;;;;;4953686;28;20749;-69
2023/12/05 01:43:33;;;;;;;;;;;0.70;99.90;;;;;;4992975;28;19936;-70
2023/12/05 01:46:00;;;;;;;;;;;0.60;99.90;;;;;;4950923;28;19937;-68
2023/12/05 01:48:26;;;;;;;;;;;0.60;99.90;;;;;;4994305;28;19925;-70
2023/12/05 01:50:53;;;;;;;;;;;0.60;99.90;;;;;;4935488;28;19925;-69
2023/12/05 01:53:21;;;;;;;;;;;0.60;99.90;;;;;;4983606;28;19948;-70
2023/12/05 01:55:47;;;;;;;;;;;0.60;99.90;;;;;;4933081;28;19936;-70
2023/12/05 01:58:13;;;;;;;;;;;0.60;99.90;;;;;;4968927;28;20410;-69
2023/12/05 02:00:39;;;;;;;;;;;0.60;99.90;;;;;;4978610;28;19925;-70
2023/12/05 02:03:05;;;;;;;;;;;0.60;99.90;;;;;;4977718;28;19979;-70
2023/12/05 02:05:32;;;;;;;;;;;0.60;99.90;;;;;;4981785;28;20515;-69
2023/12/05 02:07:58;;;;;;;;;;;0.60;99.90;;;;;;4950868;28;19929;-69
2023/12/05 02:10:24;;;;;;;;;;;0.60;99.90;;;;;;4977178;28;20561;-70
2023/12/05 02:12:50;;;;;;;;;;;0.60;99.90;;;;;;4965695;28;19936;-70
2023/12/05 02:15:16;;;;;;;;;;;0.60;99.90;;;;;;4978842;28;19972;-71
2023/12/05 02:17:48;;;;;;;;;;;0.60;99.90;;;;;;4935998;28;19936;-70
2023/12/05 02:20:20;;;;;;;;;;;0.60;99.90;;;;;;4976857;28;19929;-70
2023/12/05 02:22:49;;;;;;;;;;;0.50;99.90;;;;;;4952065;28;20306;-71
2023/12/05 02:25:33;;;;;;;;;;;0.50;99.90;;;;;;4978067;28;19925;-70
2023/12/05 02:28:00;;;;;;;;;;;0.60;99.90;;;;;;4968309;28;20625;-71
2023/12/05 02:30:26;;;;;;;;;;;0.50;99.90;;;;;;4980398;28;20968;-71
2023/12/05 02:32:52;;;;;;;;;;;0.50;99.90;;;;;;4961859;28;19924;-71
2023/12/05 02:35:18;;;;;;;;;;;0.50;99.90;;;;;;4979226;28;19935;-71
2023/12/05 02:37:51;;;;;;;;;;;0.50;99.90;;;;;;4958318;28;20557;-71
2023/12/05 02:40:21;;;;;;;;;;;0.50;99.90;;;;;;4976157;28;19925;-71
2023/12/05 02:42:49;;;;;;;;;;;0.50;99.90;;;;;;4965022;28;19924;-71
2023/12/05 02:45:16;;;;;;;;;;;0.50;99.90;;;;;;4980186;28;19936;-72
2023/12/05 02:47:44;;;;;;;;;;;0.50;99.90;;;;;;4969996;28;19936;-70
2023/12/05 02:50:10;;;;;;;;;;;0.50;99.90;;;;;;4982331;28;19925;-71
2023/12/05 02:52:36;;;;;;;;;;;0.50;99.90;;;;;;4973712;28;19931;-70
2023/12/05 02:55:02;;;;;;;;;;;0.50;99.90;;;;;;4984740;28;19941;-72
2023/12/05 02:57:28;;;;;;;;;;;0.40;99.90;;;;;;4948001;28;19976;-72
2023/12/05 02:59:53;;;;;;;;;;;0.50;99.90;;;;;;4984468;28;20008;-71
2023/12/05 03:02:19;;;;;;;;;;;0.50;99.90;;;;;;4969118;28;19948;-72
2023/12/05 03:04:45;;;;;;;;;;;0.50;99.90;;;;;;4984563;28;19931;-72
2023/12/05 03:07:11;;;;;;;;;;;0.40;99.90;;;;;;4959576;28;19997;-72
2023/12/05 03:09:37;;;;;;;;;;;0.40;99.90;;;;;;4989669;28;20671;-73
2023/12/05 03:12:03;;;;;;;;;;;0.40;99.90;;;;;;4953611;28;19932;-73
2023/12/05 03:14:29;;;;;;;;;;;0.50;99.90;;;;;;4988492;28;19929;-73
2023/12/05 03:16:55;;;;;;;;;;;0.40;99.90;;;;;;4965921;28;19936;-73
2023/12/05 03:19:21;;;;;;;;;;;0.50;99.90;;;;;;4982513;28;19932;-73
2023/12/05 03:21:47;;;;;;;;;;;0.40;99.90;;;;;;4958361;28;19924;-73
2023/12/05 03:24:13;;;;;;;;;;;0.40;99.90;;;;;;4979693;28;19925;-73
2023/12/05 03:26:39;;;;;;;;;;;0.40;99.90;;;;;;4959767;28;20022;-73
2023/12/05 03:29:04;;;;;;;;;;;0.40;99.90;;;;;;4981011;28;20461;-73
2023/12/05 03:31:33;;;;;;;;;;;0.40;99.90;;;;;;4966279;28;19924;-73
2023/12/05 03:33:59;;;;;;;;;;;0.40;99.90;;;;;;4987950;28;19936;-73
2023/12/05 03:36:25;;;;;;;;;;;0.40;99.90;;;;;;4976229;28;19929;-74
2023/12/05 03:38:51;;;;;;;;;;;0.30;99.90;;;;;;4982548;28;21248;-74
2023/12/05 03:41:17;;;;;;;;;;;0.30;99.90;;;;;;4933075;28;19929;-73
2023/12/05 03:43:43;;;;;;;;;;;0.40;99.90;;;;;;4972722;28;19933;-73
2023/12/05 03:46:09;;;;;;;;;;;0.40;99.90;;;;;;4933914;28;20521;-74
2023/12/05 03:48:35;;;;;;;;;;;0.30;99.90;;;;;;4962221;28;19932;-73
2023/12/05 03:51:02;;;;;;;;;;;0.40;99.90;;;;;;4941258;28;19940;-73
2023/12/05 03:53:28;;;;;;;;;;;0.30;99.90;;;;;;5016228;28;19924;-73
2023/12/05 03:55:54;;;;;;;;;;;0.40;99.90;;;;;;4958795;28;20440;-74
2023/12/05 03:58:20;;;;;;;;;;;0.30;99.90;;;;;;4958892;28;20955;-74
2023/12/05 04:00:46;;;;;;;;;;;0.30;99.90;;;;;;4933900;28;19940;-74
2023/12/05 04:03:13;;;;;;;;;;;0.30;99.90;;;;;;5000599;28;19932;-74
2023/12/05 04:05:39;;;;;;;;;;;0.30;99.90;;;;;;4976420;28;19929;-74
2023/12/05 04:08:05;;;;;;;;;;;0.30;99.90;;;;;;4952920;28;19929;-75
2023/12/05 04:10:31;;;;;;;;;;;0.40;99.90;;;;;;5008534;28;19936;-74
2023/12/05 04:12:56;;;;;;;;;;;0.30;99.90;;;;;;4969402;28;20412;-74
2023/12/05 04:15:22;;;;;;;;;;;0.30;99.90;;;;;;4980125;28;19934;-74
2023/12/05 04:17:48;;;;;;;;;;;0.40;99.90;;;;;;4967131;28;19932;-73
2023/12/05 04:20:14;;;;;;;;;;;0.40;99.90;;;;;;4981882;28;20535;-73
2023/12/05 04:22:40;;;;;;;;;;;0.30;99.90;;;;;;4970395;28;19997;-73
2023/12/05 04:25:07;;;;;;;;;;;0.30;99.90;;;;;;4963089;28;20951;-74
2023/12/05 04:27:33;;;;;;;;;;;0.40;99.90;;;;;;4965653;28;19925;-73
2023/12/05 04:29:59;;;;;;;;;;;0.40;99.90;;;;;;4981821;28;19925;-74
2023/12/05 04:32:25;;;;;;;;;;;0.40;99.90;;;;;;4971132;28;20657;-74
2023/12/05 04:34:51;;;;;;;;;;;0.40;99.90;;;;;;4982534;28;20433;-73
2023/12/05 04:37:17;;;;;;;;;;;0.40;99.90;;;;;;4973450;28;19925;-73
2023/12/05 04:39:43;;;;;;;;;;;0.40;99.90;;;;;;4974234;28;19929;-74
2023/12/05 04:42:09;;;;;;;;;;;0.30;99.90;;;;;;4956138;28;19925;-74
2023/12/05 04:44:35;;;;;;;;;;;0.40;99.90;;;;;;4987669;28;19924;-75
2023/12/05 04:47:03;;;;;;;;;;;0.40;99.90;;;;;;4949184;28;20613;-75
2023/12/05 04:49:30;;;;;;;;;;;0.30;99.90;;;;;;4987471;28;19929;-75
2023/12/05 04:51:56;;;;;;;;;;;0.40;99.90;;;;;;4967508;28;19951;-74
2023/12/05 04:54:22;;;;;;;;;;;0.40;99.90;;;;;;4989807;28;19928;-74
2023/12/05 04:56:48;;;;;;;;;;;0.40;99.90;;;;;;4964439;28;20079;-74
2023/12/05 04:59:13;;;;;;;;;;;0.40;99.90;;;;;;4997903;28;21205;-75
2023/12/05 05:01:39;;;;;;;;;;;0.40;99.90;;;;;;4975364;28;19995;-75
2023/12/05 05:04:05;;;;;;;;;;;0.40;99.90;;;;;;4982207;28;19956;-73
2023/12/05 05:06:31;;;;;;;;;;;0.40;99.90;;;;;;4960503;28;20631;-76
2023/12/05 05:08:57;;;;;;;;;;;0.40;99.90;;;;;;4988577;28;19929;-75
2023/12/05 05:11:23;;;;;;;;;;;0.40;99.90;;;;;;4955192;28;19924;-78
2023/12/05 05:13:49;;;;;;;;;;;0.40;99.90;;;;;;4994779;28;19928;-75
2023/12/05 05:16:15;;;;;;;;;;;0.40;99.90;;;;;;4960504;28;19929;-76
2023/12/05 05:18:41;;;;;;;;;;;0.40;99.90;;;;;;4984515;28;19925;-76
2023/12/05 05:21:07;;;;;;;;;;;0.40;99.90;;;;;;4974268;28;19955;-76
2023/12/05 05:23:33;;;;;;;;;;;0.40;99.90;;;;;;4992941;28;20289;-77
2023/12/05 05:25:59;;;;;;;;;;;0.40;99.90;;;;;;4953189;28;19941;-75
2023/12/05 05:28:25;;;;;;;;;;;0.40;99.90;;;;;;4996108;28;19936;-77
2023/12/05 05:30:54;;;;;;;;;;;0.40;99.90;;;;;;4949860;28;20426;-74
2023/12/05 05:33:21;;;;;;;;;;;0.40;99.90;;;;;;4997402;28;20017;-76
2023/12/05 05:35:47;;;;;;;;;;;0.40;99.90;;;;;;4967583;28;19952;-76
2023/12/05 05:38:13;;;;;;;;;;;0.40;99.90;;;;;;4981948;28;20463;-71
2023/12/05 05:40:39;;;;;;;;;;;0.40;99.90;;;;;;4978891;28;19935;-71
2023/12/05 05:43:05;;;;;;;;;;;0.40;99.90;;;;;;4964025;28;19929;-71
2023/12/05 05:45:31;;;;;;;;;;;0.40;99.90;;;;;;4978483;28;19948;-71
2023/12/05 05:47:57;;;;;;;;;;;0.40;99.90;;;;;;4951818;28;19928;-71
2023/12/05 05:50:23;;;;;;;;;;;0.40;99.90;;;;;;5011966;28;19932;-70
2023/12/05 05:52:49;;;;;;;;;;;0.40;99.90;;;;;;4973489;28;19925;-70
2023/12/05 05:55:15;;;;;;;;;;;0.40;99.90;;;;;;4978980;28;19933;-71
2023/12/05 05:57:41;;;;;;;;;;;0.50;99.90;;;;;;4965298;28;19931;-70
2023/12/05 06:00:08;;;;;;;;;;;0.40;99.90;;;;;;4981571;28;19967;-71
2023/12/05 06:02:34;;;;;;;;;;;0.40;99.90;;;;;;4951635;28;20324;-72
2023/12/05 06:05:00;;;;;;;;;;;0.40;99.90;;;;;;4977694;28;19932;-69
2023/12/05 06:07:25;;;;;;;;;;;0.40;99.90;;;;;;4965822;28;19935;-71
2023/12/05 06:09:51;;;;;;;;;;;0.50;99.90;;;;;;4979339;28;19984;-72
2023/12/05 06:12:17;;;;;;;;;;;0.50;99.90;;;;;;4959207;28;19929;-72
2023/12/05 06:14:43;;;;;;;;;;;0.40;99.90;;;;;;4978153;28;19929;-72
2023/12/05 06:17:09;;;;;;;;;;;0.40;99.90;;;;;;4968729;28;19928;-72
2023/12/05 06:19:35;;;;;;;;;;;0.40;99.90;;;;;;4985747;28;19936;-71
2023/12/05 06:22:01;;;;;;;;;;;0.40;99.90;;;;;;4957291;28;19924;-70
2023/12/05 06:24:27;;;;;;;;;;;0.50;99.90;;;;;;4989793;28;19924;-71
2023/12/05 06:26:53;;;;;;;;;;;0.40;99.90;;;;;;4945672;28;19933;-71
2023/12/05 06:29:19;;;;;;;;;;;0.40;99.90;;;;;;4980253;28;20046;-71
2023/12/05 06:31:45;;;;;;;;;;;0.40;99.90;;;;;;4964027;28;19929;-71
2023/12/05 06:34:11;;;;;;;;;;;0.50;99.90;;;;;;4986455;28;19944;-71
2023/12/05 06:36:37;;;;;;;;;;;0.40;99.90;;;;;;4966876;28;20229;-70
2023/12/05 06:39:04;;;;;;;;;;;0.50;99.90;;;;;;4989779;28;20304;-70
2023/12/05 06:41:29;;;;;;;;;;;0.40;99.90;;;;;;4962629;28;19926;-70
2023/12/05 06:43:55;;;;;;;;;;;0.40;99.90;;;;;;4992471;28;20307;-71
2023/12/05 06:46:22;;;;;;;;;;;0.50;99.90;;;;;;4956377;28;19936;-71
2023/12/05 06:48:48;;;;;;;;;;;0.40;99.90;;;;;;4984370;28;20126;-71
2023/12/05 06:51:21;;;;;;;;;;;0.40;99.90;;;;;;4956222;28;19931;-70
2023/12/05 06:53:49;;;;;;;;;;;0.40;99.90;;;;;;4981191;28;20573;-71
2023/12/05 06:56:15;;;;;;;;;;;0.40;99.90;;;;;;4956069;28;19929;-69
2023/12/05 06:58:41;;;;;;;;;;;0.50;99.90;;;;;;4994861;28;19927;-70
2023/12/05 07:01:07;;;;;;;;;;;0.40;99.90;;;;;;4952759;28;19925;-70
2023/12/05 07:03:33;;;;;;;;;;;0.40;99.90;;;;;;4978987;28;19936;-70
2023/12/05 07:05:59;;;;;;;;;;;0.40;99.90;;;;;;4954412;28;19926;-70
2023/12/05 07:08:26;;;;;;;;;;;0.40;99.90;;;;;;4980098;28;20685;-70
2023/12/05 07:10:52;;;;;;;;;;;0.40;99.90;;;;;;4954691;28;19925;-70
2023/12/05 07:13:18;;;;;;;;;;;0.40;99.90;;;;;;4981866;28;19936;-70
2023/12/05 07:15:44;;;;;;;;;;;0.40;99.90;;;;;;4936759;28;19944;-69
2023/12/05 07:18:10;;;;;;;;;;;0.40;99.90;;;;;;4995096;28;20990;-69
2023/12/05 07:20:36;;;;;;;;;;;0.40;99.90;;;;;;4974456;28;19936;-69
2023/12/05 07:23:02;;;;;;;;;;;0.40;99.90;;;;;;4972827;28;19933;-72
2023/12/05 07:25:29;;;;;;;;;;;0.40;99.90;;;;;;4982178;28;19925;-73
2023/12/05 07:27:55;;;;;;;;;;;0.40;99.90;;;;;;4961555;28;20443;-73
2023/12/05 07:30:21;;;;;;;;;;;0.40;99.90;;;;;;4984611;28;20008;-73
2023/12/05 07:32:47;;;;;;;;;;;0.40;99.90;;;;;;4974421;28;20019;-74
2023/12/05 07:35:13;;;;;;;;;;;0.40;99.90;;;;;;4986885;28;19929;-74
2023/12/05 07:37:40;;;;;;;;;;;0.40;99.90;;;;;;4953544;28;19936;-71
2023/12/05 07:40:06;;;;;;;;;;;0.40;99.90;;;;;;4980180;28;19929;-75
2023/12/05 07:42:32;;;;;;;;;;;0.40;99.90;;;;;;4973213;28;19924;-74
2023/12/05 07:44:58;;;;;;;;;;;0.40;99.90;;;;;;4980153;28;20144;-73
2023/12/05 07:47:24;;;;;;;;;;;0.40;99.90;;;;;;4968765;28;20276;-73
2023/12/05 07:49:50;;;;;;;;;;;0.40;99.90;;;;;;4984622;28;19924;-73
2023/12/05 07:52:16;;;;;;;;;;;0.40;99.90;;;;;;4958227;28;20506;-73
2023/12/05 07:54:45;;;;;;;;;;;0.40;99.90;;;;;;4975621;28;19925;-73
2023/12/05 07:57:11;;;;;;;;;;;0.40;99.90;;;;;;4965233;28;20019;-74
2023/12/05 07:59:37;;;;;;;;;;;0.40;99.90;;;;;;4984152;28;19949;-73
2023/12/05 08:02:03;;;;;;;;;;;0.50;99.90;;;;;;4958372;28;19932;-72
2023/12/05 08:04:29;;;;;;;;;;;0.40;99.90;;;;;;4984385;28;19924;-73
2023/12/05 08:06:55;;;;;;;;;;;0.50;99.90;;;;;;4966628;28;19928;-73
2023/12/05 08:09:21;;;;;;;;;;;0.50;99.90;;;;;;4986614;28;19928;-73
2023/12/05 08:11:47;;;;;;;;;;;0.50;99.90;;;;;;4961204;28;20213;-73
2023/12/05 08:14:13;;;;;;;;;;;0.50;99.90;;;;;;4981367;28;19925;-72
2023/12/05 08:16:40;;;;;;;;;;;0.60;99.90;;;;;;4957085;28;20139;-74
2023/12/05 08:19:05;;;;;;;;;;;0.60;99.90;;;;;;4987846;28;19929;-73
2023/12/05 08:21:31;;;;;;;;;;;0.60;99.90;;;;;;4964396;28;19928;-74
2023/12/05 08:23:57;;;;;;;;;;;0.60;99.90;;;;;;4965786;28;20503;-71
2023/12/05 08:26:23;;;;;;;;;;;0.60;99.90;;;;;;4958497;28;19924;-73
2023/12/05 08:28:49;;;;;;;;;;;0.70;99.90;;;;;;5004834;28;19965;-72
2023/12/05 08:31:15;;;;;;;;;;;0.70;99.90;;;;;;4958833;28;19929;-72
2023/12/05 08:33:41;;;;;;;;;;;0.70;99.90;;;;;;4984608;28;19925;-72
2023/12/05 08:36:08;;;;;;;;;;;0.70;99.90;;;;;;4954266;28;19932;-72
2023/12/05 08:38:35;;;;;;;;;;;0.80;99.90;;;;;;4997310;28;20623;-73
2023/12/05 08:41:01;;;;;;;;;;;0.80;99.90;;;;;;4956290;28;19934;-73
2023/12/05 08:43:26;;;;;;;;;;;0.80;99.90;;;;;;4981319;28;20206;-72
2023/12/05 08:45:52;;;;;;;;;;;0.80;99.90;;;;;;4957648;28;20285;-73
2023/12/05 08:48:18;;;;;;;;;;;0.80;99.90;;;;;;4992852;28;19976;-73
2023/12/05 08:50:44;;;;;;;;;;;0.80;99.90;;;;;;4955687;28;19995;-73
2023/12/05 08:53:13;;;;;;;;;;;0.80;99.90;;;;;;5002172;28;19964;-72
2023/12/05 08:55:41;;;;;;;;;;;0.90;99.90;;;;;;4961837;28;20574;-71
2023/12/05 08:58:07;;;;;;;;;;;0.80;99.90;;;;;;4970285;28;19925;-72
2023/12/05 09:00:34;;;;;;;;;;;0.80;99.90;;;;;;4985501;28;20559;-74
2023/12/05 09:03:00;;;;;;;;;;;0.80;99.90;;;;;;4941163;28;19932;-73
2023/12/05 09:05:26;;;;;;;;;;;0.80;99.90;;;;;;4969215;28;19936;-74
2023/12/05 09:07:52;;;;;;;;;;;0.80;99.90;;;;;;4978146;28;19949;-75
2023/12/05 09:10:18;;;;;;;;;;;0.80;99.90;;;;;;4983564;28;20635;-75
2023/12/05 09:12:45;;;;;;;;;;;0.90;99.90;;;;;;4962594;28;19925;-75
2023/12/05 09:15:11;;;;;;;;;;;0.80;99.90;;;;;;4983145;28;19929;-75
2023/12/05 09:17:36;;;;;;;;;;;0.80;99.90;;;;;;4972453;28;19928;-75
2023/12/05 09:20:04;;;;;;;;;;;0.90;99.90;;;;;;4980936;28;20383;-75
2023/12/05 09:22:29;;;;;;;;;;;0.90;99.90;;;;;;4959648;28;19935;-74
2023/12/05 09:24:55;;;;;;;;;;;1.00;99.90;;;;;;4985565;28;19924;-75
2023/12/05 09:27:21;;;;;;;;;;;1.00;99.90;;;;;;4983173;28;20076;-74
2023/12/05 09:29:47;;;;;;;;;;;1.00;99.90;;;;;;4995899;28;20258;-75
2023/12/05 09:32:13;;;;;;;;;;;1.00;99.90;;;;;;5000029;28;19932;-75
2023/12/05 09:34:40;;;;;;;;;;;1.00;99.90;;;;;;4992215;28;19925;-76
2023/12/05 09:37:05;;;;;;;;;;;1.00;99.90;;;;;;4978246;28;19932;-74
2023/12/05 09:39:31;;;;;;;;;;;1.10;99.90;;;;;;4991811;28;19936;-73
2023/12/05 09:42:01;;;;;;;;;;;1.10;99.90;;;;;;4956825;28;20043;-72
2023/12/05 09:44:29;;;;;;;;;;;1.00;99.90;;;;;;4966133;28;19933;-72
2023/12/05 09:46:56;;;;;;;;;;;1.00;99.90;;;;;;4945830;28;20023;-72
2023/12/05 09:49:26;;;;;;;;;;;1.10;99.90;;;;;;4981978;28;19936;-72
2023/12/05 09:51:52;;;;;;;;;;;1.10;99.90;;;;;;4973487;28;20263;-72
2023/12/05 09:54:18;;;;;;;;;;;1.10;99.90;;;;;;4953276;28;19925;-71
2023/12/05 09:56:44;;;;;;;;;;;1.10;99.90;;;;;;4965016;28;20138;-72
2023/12/05 09:59:13;;;;;;;;;;;1.10;99.90;;;;;;4986755;28;19925;-71
2023/12/05 10:01:41;;;;;;;;;;;1.10;99.90;;;;;;4961020;28;19932;-72
2023/12/05 10:04:10;;;;;;;;;;;1.10;99.90;;;;;;4995678;28;19925;-72
2023/12/05 10:06:37;;;;;;;;;;;1.10;99.90;;;;;;4964470;28;19924;-71
2023/12/05 10:09:06;;;;;;;;;;;1.10;99.90;;;;;;4994865;28;19924;-72
2023/12/05 10:11:33;;;;;;;;;;;1.10;99.90;;;;;;4977825;28;19924;-73
2023/12/05 10:13:59;;;;;;;;;;;1.20;99.90;;;;;;4995987;28;20378;-74
2023/12/05 10:16:26;;;;;;;;;;;1.20;99.90;;;;;;4958060;28;19983;-73
2023/12/05 10:18:52;;;;;;;;;;;1.20;99.90;;;;;;4984710;28;19937;-72
2023/12/05 10:21:18;;;;;;;;;;;1.30;99.90;;;;;;4958981;28;19928;-73
2023/12/05 10:23:44;;;;;;;;;;;1.30;99.90;;;;;;4989504;28;19980;-73
2023/12/05 10:26:10;;;;;;;;;;;1.30;99.90;;;;;;4960920;28;19925;-73
2023/12/05 10:28:50;;;;;;;;;;;1.30;99.90;;;;;;4985961;28;19968;-73
2023/12/05 10:31:17;;;;;;;;;;;1.30;99.90;;;;;;4961843;28;19928;-74
2023/12/05 10:33:42;;;;;;;;;;;1.30;99.90;;;;;;4979522;28;19932;-74
2023/12/05 10:36:09;;;;;;;;;;;1.40;99.90;;;;;;4959807;28;20033;-73
2023/12/05 10:38:36;;;;;;;;;;;1.40;99.90;;;;;;5002346;28;19925;-73
2023/12/05 10:41:02;;;;;;;;;;;1.40;99.90;;;;;;4957438;28;20439;-74
2023/12/05 10:43:28;;;;;;;;;;;1.40;99.90;;;;;;5002943;28;19925;-73
2023/12/05 10:45:55;;;;;;;;;;;1.30;99.90;;;;;;4958769;28;19925;-73
2023/12/05 10:48:23;;;;;;;;;;;1.30;99.90;;;;;;4986112;28;19929;-73
2023/12/05 10:50:51;;;;;;;;;;;1.30;99.90;;;;;;4957952;28;19925;-72
2023/12/05 10:53:17;;;;;;;;;;;1.30;99.90;;;;;;4969176;28;19932;-72
2023/12/05 10:55:44;;;;;;;;;;;1.40;99.90;;;;;;4966051;28;19951;-72
2023/12/05 10:58:10;;;;;;;;;;;1.40;99.90;;;;;;4985271;28;20438;-73
2023/12/05 11:00:37;;;;;;;;;;;1.40;99.90;;;;;;4984055;28;19937;-72
2023/12/05 11:03:03;;;;;;;;;;;1.50;99.90;;;;;;4970481;28;19933;-72
2023/12/05 11:05:32;;;;;;;;;;;1.50;99.90;;;;;;4984783;28;19932;-72
2023/12/05 11:07:59;;;;;;;;;;;1.50;99.90;;;;;;4977449;28;19925;-73
2023/12/05 11:10:25;;;;;;;;;;;1.60;99.90;;;;;;4982390;28;21133;-73
2023/12/05 11:12:51;;;;;;;;;;;1.50;99.90;;;;;;4964536;28;19935;-72
2023/12/05 11:15:21;;;;;;;;;;;1.50;99.90;;;;;;4984464;28;20604;-73
2023/12/05 11:17:57;;;;;;;;;;;1.60;99.90;;;;;;4960390;28;20874;-76
2023/12/05 11:20:23;;;;;;;;;;;1.50;99.90;;;;;;4983589;28;19925;-73
2023/12/05 11:23:03;;;;;;;;;;;1.50;99.90;;;;;;4981105;28;20502;-73
2023/12/05 11:25:43;;;;;;;;;;;1.40;99.90;;;;;;4988769;28;20210;-73
2023/12/05 11:28:09;;;;;;;;;;;1.50;99.90;;;;;;4970067;28;20798;-73
2023/12/05 11:30:48;;;;;;;;;;;1.50;99.90;;;;;;4990811;28;19932;-73
2023/12/05 11:33:33;;;;;;;;;;;1.40;99.90;;;;;;4953823;28;20528;-75
2023/12/05 11:36:07;;;;;;;;;;;1.40;99.90;;;;;;4960388;28;19934;-74
2023/12/05 11:38:33;;;;;;;;;;;1.40;99.90;;;;;;4990274;28;19932;-75
2023/12/05 11:41:14;;;;;;;;;;;1.40;99.90;;;;;;4966959;28;20733;-74
2023/12/05 11:43:42;;;;;;;;;;;1.30;99.90;;;;;;5003163;28;20546;-75
2023/12/05 11:46:08;;;;;;;;;;;1.40;99.90;;;;;;4958551;28;19932;-75
2023/12/05 11:48:34;;;;;;;;;;;1.30;99.90;;;;;;5017330;28;20632;-74
2023/12/05 11:51:02;;;;;;;;;;;1.30;99.90;;;;;;4975039;28;20024;-74
2023/12/05 11:53:28;;;;;;;;;;;1.40;99.90;;;;;;4973964;28;22406;-74
2023/12/05 11:55:54;;;;;;;;;;;1.40;99.90;;;;;;4957523;28;19936;-75
2023/12/05 11:58:33;;;;;;;;;;;1.30;99.90;;;;;;5007940;28;20410;-75
2023/12/05 12:00:59;;;;;;;;;;;1.30;99.90;;;;;;4992079;28;19968;-74
2023/12/05 12:03:26;;;;;;;;;;;1.30;99.90;;;;;;4989697;28;20494;-75
2023/12/05 12:06:00;;;;;;;;;;;1.30;99.90;;;;;;4940052;28;20653;-74
2023/12/05 12:08:26;;;;;;;;;;;1.30;99.90;;;;;;5002285;28;19924;-73
2023/12/05 12:10:52;;;;;;;;;;;1.30;99.90;;;;;;4957212;28;19935;-74
2023/12/05 12:13:17;;;;;;;;;;;1.20;99.90;;;;;;5003522;28;19935;-75
2023/12/05 12:15:43;;;;;;;;;;;1.20;99.90;;;;;;4956183;28;19932;-75
2023/12/05 12:18:09;;;;;;;;;;;1.20;99.90;;;;;;4986821;28;20395;-76
2023/12/05 12:20:35;;;;;;;;;;;1.20;99.90;;;;;;4982541;28;20004;-75
2023/12/05 12:23:02;;;;;;;;;;;1.30;99.90;;;;;;4962500;28;19932;-76
2023/12/05 12:25:28;;;;;;;;;;;1.30;99.90;;;;;;4983574;28;19929;-75
2023/12/05 12:27:53;;;;;;;;;;;1.20;99.90;;;;;;4959193;28;19936;-76
2023/12/05 12:30:20;;;;;;;;;;;1.30;99.90;;;;;;4980323;28;19936;-69
2023/12/05 12:32:53;;;;;;;;;;;1.20;99.90;;;;;;4969558;28;19979;-77
2023/12/05 12:35:22;;;;;;;;;;;1.10;99.90;;;;;;4980033;28;19925;-76
2023/12/05 12:37:52;;;;;;;;;;;1.10;99.90;;;;;;4954186;28;19936;-76
2023/12/05 12:40:18;;;;;;;;;;;1.10;99.90;;;;;;4979979;28;20406;-76
2023/12/05 12:42:50;;;;;;;;;;;1.10;99.90;;;;;;4975975;28;19925;-76
2023/12/05 12:45:15;;;;;;;;;;;1.10;99.90;;;;;;4981042;28;19940;-76
2023/12/05 12:47:41;;;;;;;;;;;1.10;99.90;;;;;;4966166;28;20422;-76
2023/12/05 12:50:08;;;;;;;;;;;1.10;99.90;;;;;;5013201;28;20461;-76
2023/12/05 12:52:34;;;;;;;;;;;1.10;99.90;;;;;;4960011;28;19926;-75
2023/12/05 12:55:00;;;;;;;;;;;1.10;99.90;;;;;;4983814;28;20046;-75
2023/12/05 12:57:26;;;;;;;;;;;1.10;99.90;;;;;;4966995;28;19932;-75
2023/12/05 12:59:56;;;;;;;;;;;1.00;99.90;;;;;;4982439;28;19932;-76
2023/12/05 13:02:25;;;;;;;;;;;1.00;99.90;;;;;;4955531;28;19924;-75
2023/12/05 13:04:55;;;;;;;;;;;0.90;99.90;;;;;;4989587;28;19925;-75
2023/12/05 13:07:24;;;;;;;;;;;0.90;99.90;;;;;;4961818;28;19928;-75
2023/12/05 13:09:50;;;;;;;;;;;0.90;99.90;;;;;;4988173;28;19932;-75
2023/12/05 13:12:25;;;;;;;;;;;0.90;99.90;;;;;;4981261;28;20517;-76
2023/12/05 13:14:51;;;;;;;;;;;0.90;99.90;;;;;;4987701;28;19929;-75
2023/12/05 13:17:17;;;;;;;;;;;0.90;99.90;;;;;;4955725;28;19929;-73
2023/12/05 13:19:43;;;;;;;;;;;0.90;99.90;;;;;;4986737;28;19940;-74
2023/12/05 13:22:09;;;;;;;;;;;0.90;99.90;;;;;;4969784;28;19928;-75
2023/12/05 13:24:35;;;;;;;;;;;0.90;99.90;;;;;;4985890;28;19929;-74
2023/12/05 13:27:01;;;;;;;;;;;0.90;99.90;;;;;;4967979;28;20424;-74
2023/12/05 13:29:27;;;;;;;;;;;0.90;99.90;;;;;;4995641;28;20096;-74
2023/12/05 13:31:53;;;;;;;;;;;0.90;99.90;;;;;;4949479;28;20372;-75
2023/12/05 13:34:19;;;;;;;;;;;1.00;99.90;;;;;;4988789;28;19925;-75
2023/12/05 13:36:45;;;;;;;;;;;1.00;99.90;;;;;;4967705;28;20006;-74
2023/12/05 13:39:13;;;;;;;;;;;1.00;99.90;;;;;;4988378;28;19925;-74
2023/12/05 13:41:39;;;;;;;;;;;0.90;99.90;;;;;;4957450;28;20472;-75
2023/12/05 13:44:05;;;;;;;;;;;1.00;99.90;;;;;;4968275;28;19940;-74
2023/12/05 13:46:31;;;;;;;;;;;0.90;99.90;;;;;;4962782;28;19950;-75
2023/12/05 13:49:07;;;;;;;;;;;1.00;99.90;;;;;;5017862;28;21466;-75
2023/12/05 13:51:33;;;;;;;;;;;1.00;99.90;;;;;;4963266;28;19929;-75
2023/12/05 13:54:00;;;;;;;;;;;1.00;99.90;;;;;;4987521;28;20584;-75
2023/12/05 13:56:26;;;;;;;;;;;1.00;99.90;;;;;;4945501;28;19928;-74
2023/12/05 13:58:52;;;;;;;;;;;0.90;99.90;;;;;;4971963;28;20410;-75
2023/12/05 14:01:19;;;;;;;;;;;0.90;99.90;;;;;;4961866;28;19932;-74
2023/12/05 14:03:45;;;;;;;;;;;0.80;99.90;;;;;;4991642;28;20402;-75
2023/12/05 14:06:11;;;;;;;;;;;0.80;99.90;;;;;;4954189;28;19924;-74
2023/12/05 14:08:36;;;;;;;;;;;0.80;99.90;;;;;;4995085;28;20039;-74
2023/12/05 14:11:02;;;;;;;;;;;0.90;99.90;;;;;;4956436;28;19929;-73
2023/12/05 14:13:28;;;;;;;;;;;0.90;99.90;;;;;;4997235;28;19936;-74
2023/12/05 14:15:54;;;;;;;;;;;0.90;99.90;;;;;;4984836;28;20984;-74
2023/12/05 14:18:20;;;;;;;;;;;0.90;99.90;;;;;;4976810;28;20044;-73
2023/12/05 14:20:47;;;;;;;;;;;0.90;99.90;;;;;;4949133;28;19932;-73
2023/12/05 14:23:12;;;;;;;;;;;0.90;99.90;;;;;;5001900;28;19932;-73
2023/12/05 14:25:38;;;;;;;;;;;0.80;99.90;;;;;;4992965;28;19925;-74
2023/12/05 14:28:04;;;;;;;;;;;0.80;99.90;;;;;;4938541;28;19925;-73